Venus Seven — H9RN — position and weather

sailwx.info

Track history (hours):
 
Tides and Currents Weather Stations Pressure Air Temp Water Temp Dewpoint Dewpoint Depression Visibility Wind Speed Wind Dir Waves Ship Positions

Venus Seven

Last reported at 2014-Sep-30 10:24 UTC. Time now 2014-Sep-30 17:59 UTC.
Position N 22°42' E 120°10'.

Length 93 m; draft 4.8 m.

Type: Cargo ship. MMSI: 353405000.

Date/timePositionNaut miles runAvg speedWind from/ knotsBaromVisibWave heightAir tempDewpointWater temp
2014-Sep-30 10:24N 22°42' E 120°10'8 9.7
2014-Sep-30 09:33N 22°37' E 120°17'1 0.2
2014-Sep-30 07:22N 22°37' E 120°17'0 0.0
2014-Sep-30 06:25N 22°37' E 120°17'0 0.0
2014-Sep-30 05:31N 22°37' E 120°17'0 0.0
2014-Sep-30 04:31N 22°37' E 120°17'0 0.0
2014-Sep-30 03:19N 22°37' E 120°17'0 0.0
2014-Sep-30 02:31N 22°37' E 120°17'0 0.0
2014-Sep-30 01:25N 22°37' E 120°17'0 0.0
2014-Sep-30 00:31N 22°37' E 120°17'0 0.0
2014-Sep-29 23:31N 22°37' E 120°17'0 0.0
2014-Sep-29 22:31N 22°37' E 120°17'0 0.0
2014-Sep-29 21:31N 22°37' E 120°17'0 0.0
2014-Sep-29 20:31N 22°37' E 120°17'0 0.0
2014-Sep-29 19:31N 22°37' E 120°17'0 0.0
2014-Sep-29 18:31N 22°37' E 120°17'0 0.0
2014-Sep-29 17:31N 22°37' E 120°17'0 0.0
2014-Sep-29 16:31N 22°37' E 120°17'0 0.0
2014-Sep-29 15:31N 22°37' E 120°17'0 0.0
2014-Sep-29 14:31N 22°37' E 120°17'0 0.0
2014-Sep-29 13:31N 22°37' E 120°17'0 0.0
2014-Sep-29 12:25N 22°37' E 120°17'0 0.0
2014-Sep-29 11:25N 22°37' E 120°17'0 0.0
2014-Sep-29 10:13N 22°37' E 120°17'0 0.0
2014-Sep-29 09:31N 22°37' E 120°17'0 0.0
2014-Sep-29 08:31N 22°37' E 120°17'0 0.0
2014-Sep-29 07:31N 22°37' E 120°17'0 0.0
2014-Sep-29 06:31N 22°37' E 120°17'0 0.0
2014-Sep-29 05:31N 22°37' E 120°17'0 0.0
2014-Sep-29 03:31N 22°37' E 120°17'0 0.0
2014-Sep-29 01:24N 22°37' E 120°17'1 1.2
2014-Sep-29 00:33N 22°37' E 120°16'2 2.3
2014-Sep-28 23:33N 22°37' E 120°13'1312.7
2014-Sep-28 22:34N 22°47' E 120°05'10312.6
2014-Sep-28 14:26N 24°28' E 120°27'  
2014-Sep-24 09:28N 34°35' E 134°52'1112.3
2014-Sep-24 08:34N 34°35' E 135°06'1312.5
2014-Sep-24 07:33N 34°37' E 135°21'4 2.9
2014-Sep-24 06:19N 34°38' E 135°25'0 0.0
2014-Sep-24 05:31N 34°38' E 135°25'0 0.0
2014-Sep-24 04:13N 34°38' E 135°25'0 0.0
2014-Sep-24 03:25N 34°38' E 135°25'0 0.0
2014-Sep-24 02:31N 34°38' E 135°25'0 0.0
2014-Sep-24 01:31N 34°38' E 135°25'0 0.0
2014-Sep-24 00:31N 34°38' E 135°25'0 0.0
2014-Sep-23 23:31N 34°38' E 135°25'0 0.0
2014-Sep-23 22:31N 34°38' E 135°25'0 0.0
2014-Sep-23 21:31N 34°38' E 135°25'0 0.0
2014-Sep-23 20:25N 34°38' E 135°25'0 0.0
2014-Sep-23 19:13N 34°38' E 135°25'0 0.0
2014-Sep-23 18:31N 34°38' E 135°25'0 0.0
2014-Sep-23 17:31N 34°38' E 135°25'0 0.0
2014-Sep-23 16:31N 34°38' E 135°25'0 0.0
2014-Sep-23 15:19N 34°38' E 135°25'0 0.0
2014-Sep-23 14:25N 34°38' E 135°25'0 0.0
2014-Sep-23 13:31N 34°38' E 135°25'0 0.0
2014-Sep-23 12:31N 34°38' E 135°25'0 0.0
2014-Sep-23 11:25N 34°38' E 135°25'0 0.0
2014-Sep-23 10:31N 34°38' E 135°25'0 0.0
2014-Sep-23 09:30N 34°38' E 135°25'0 0.0
2014-Sep-23 08:30N 34°38' E 135°25'0 0.0
2014-Sep-23 07:24N 34°38' E 135°25'0 0.0
2014-Sep-23 06:24N 34°38' E 135°25'0 0.0
2014-Sep-23 05:30N 34°38' E 135°25'0 0.0
2014-Sep-23 04:30N 34°38' E 135°25'0 0.0
2014-Sep-23 03:30N 34°38' E 135°25'0 0.0
2014-Sep-23 02:30N 34°38' E 135°25'0 0.0
2014-Sep-23 01:30N 34°38' E 135°25'0 0.0
2014-Sep-23 00:30N 34°38' E 135°25'0 0.0
2014-Sep-22 23:24N 34°38' E 135°25'0 0.0
2014-Sep-22 22:30N 34°38' E 135°25'0 0.0
2014-Sep-22 21:24N 34°38' E 135°25'0 0.0
2014-Sep-22 20:30N 34°38' E 135°25'0 0.0
2014-Sep-22 19:30N 34°38' E 135°25'0 0.0
2014-Sep-22 18:30N 34°38' E 135°25'0 0.0
2014-Sep-22 17:30N 34°38' E 135°25'0 0.0
2014-Sep-22 16:18N 34°38' E 135°25'0 0.0
2014-Sep-22 15:30N 34°38' E 135°25'0 0.0
2014-Sep-22 14:24N 34°38' E 135°25'0 0.0
2014-Sep-22 13:30N 34°38' E 135°25'0 0.0
2014-Sep-22 12:30N 34°38' E 135°25'0 0.0
2014-Sep-22 11:18N 34°38' E 135°25'0 0.0
2014-Sep-22 10:30N 34°38' E 135°25'0 0.0
2014-Sep-22 09:18N 34°38' E 135°25'0 0.0
2014-Sep-22 08:23N 34°38' E 135°25'0 0.0
2014-Sep-22 07:29N 34°38' E 135°25'0 0.0
2014-Sep-22 06:23N 34°38' E 135°25'0 0.0
2014-Sep-22 05:29N 34°38' E 135°25'0 0.0
2014-Sep-22 04:17N 34°38' E 135°25'0 0.0
2014-Sep-22 03:29N 34°38' E 135°25'0 0.0
2014-Sep-22 02:23N 34°38' E 135°25'0 0.0
2014-Sep-22 01:29N 34°38' E 135°25'0 0.0
2014-Sep-22 00:29N 34°38' E 135°25'0 0.0
2014-Sep-21 23:17N 34°38' E 135°25'0 0.0
2014-Sep-21 22:29N 34°38' E 135°25'2 1.9
2014-Sep-21 21:33N 34°38' E 135°23'1 1.1
2014-Sep-21 20:34N 34°37' E 135°22'0 0.0
2014-Sep-21 19:33N 34°37' E 135°22'0 0.0
2014-Sep-21 18:33N 34°37' E 135°22'0 0.0
2014-Sep-21 17:33N 34°37' E 135°22'0 0.0
2014-Sep-21 16:33N 34°37' E 135°22'0 0.0
2014-Sep-21 15:21N 34°37' E 135°22'0 0.0
2014-Sep-21 14:33N 34°37' E 135°22'0 0.0
2014-Sep-21 13:33N 34°37' E 135°22'0 0.1
2014-Sep-21 12:33N 34°37' E 135°22'0 0.0
2014-Sep-21 11:33N 34°37' E 135°22'0 0.0
2014-Sep-21 10:33N 34°37' E 135°22'0 0.0
2014-Sep-21 09:33N 34°37' E 135°22'0 0.0
2014-Sep-21 08:33N 34°37' E 135°22'0 0.0
2014-Sep-21 07:33N 34°37' E 135°22'0 0.0
2014-Sep-21 06:33N 34°37' E 135°22'0 0.1
2014-Sep-21 05:33N 34°37' E 135°22'0 0.0
2014-Sep-21 04:33N 34°37' E 135°22'0 0.0
2014-Sep-21 03:27N 34°37' E 135°22'0 0.0
2014-Sep-21 02:27N 34°37' E 135°22'0 0.0
2014-Sep-21 01:27N 34°37' E 135°22'0 0.0
2014-Sep-21 00:33N 34°37' E 135°22'0 0.0
2014-Sep-20 23:27N 34°37' E 135°22'0 0.0
2014-Sep-20 22:33N 34°37' E 135°22'0 0.0
2014-Sep-20 21:21N 34°37' E 135°22'0 0.0
2014-Sep-20 20:33N 34°37' E 135°22'0 0.0
2014-Sep-20 19:33N 34°37' E 135°22'0 0.0
2014-Sep-20 18:33N 34°37' E 135°22'0 0.0
2014-Sep-20 17:33N 34°37' E 135°22'0 0.0
2014-Sep-20 16:33N 34°37' E 135°22'0 0.0
2014-Sep-20 15:21N 34°37' E 135°22'3 4.3
2014-Sep-20 14:33N 34°36' E 135°18'1313.1
2014-Sep-20 13:33N 34°36' E 135°02'1312.7
2014-Sep-20 12:33N 34°33' E 134°47'  
Track history (hours):
 
Tides and Currents Weather Stations Pressure Air Temp Water Temp Dewpoint Dewpoint Depression Visibility Wind Speed Wind Dir Waves Ship Positions

Venus Seven

Last reported at 2014-Sep-30 10:24 UTC. Time now 2014-Sep-30 17:59 UTC.
Position N 22°42' E 120°10'.

Length 93 m; draft 4.8 m.

Type: Cargo ship. MMSI: 353405000.

Date/timePositionNaut miles runAvg speedWind from/ knotsBaromVisibWave heightAir tempDewpointWater temp
2014-Sep-30 10:24N 22°42' E 120°10'8 9.7
2014-Sep-30 09:33N 22°37' E 120°17'1 0.2
2014-Sep-30 07:22N 22°37' E 120°17'0 0.0
2014-Sep-30 06:25N 22°37' E 120°17'0 0.0
2014-Sep-30 05:31N 22°37' E 120°17'0 0.0
2014-Sep-30 04:31N 22°37' E 120°17'0 0.0
2014-Sep-30 03:19N 22°37' E 120°17'0 0.0
2014-Sep-30 02:31N 22°37' E 120°17'0 0.0
2014-Sep-30 01:25N 22°37' E 120°17'0 0.0
2014-Sep-30 00:31N 22°37' E 120°17'0 0.0
2014-Sep-29 23:31N 22°37' E 120°17'0 0.0
2014-Sep-29 22:31N 22°37' E 120°17'0 0.0
2014-Sep-29 21:31N 22°37' E 120°17'0 0.0
2014-Sep-29 20:31N 22°37' E 120°17'0 0.0
2014-Sep-29 19:31N 22°37' E 120°17'0 0.0
2014-Sep-29 18:31N 22°37' E 120°17'0 0.0
2014-Sep-29 17:31N 22°37' E 120°17'0 0.0
2014-Sep-29 16:31N 22°37' E 120°17'0 0.0
2014-Sep-29 15:31N 22°37' E 120°17'0 0.0
2014-Sep-29 14:31N 22°37' E 120°17'0 0.0
2014-Sep-29 13:31N 22°37' E 120°17'0 0.0
2014-Sep-29 12:25N 22°37' E 120°17'0 0.0
2014-Sep-29 11:25N 22°37' E 120°17'0 0.0
2014-Sep-29 10:13N 22°37' E 120°17'0 0.0
2014-Sep-29 09:31N 22°37' E 120°17'0 0.0
2014-Sep-29 08:31N 22°37' E 120°17'0 0.0
2014-Sep-29 07:31N 22°37' E 120°17'0 0.0
2014-Sep-29 06:31N 22°37' E 120°17'0 0.0
2014-Sep-29 05:31N 22°37' E 120°17'0 0.0
2014-Sep-29 03:31N 22°37' E 120°17'0 0.0
2014-Sep-29 01:24N 22°37' E 120°17'1 1.2
2014-Sep-29 00:33N 22°37' E 120°16'2 2.3
2014-Sep-28 23:33N 22°37' E 120°13'1312.7
2014-Sep-28 22:34N 22°47' E 120°05'10312.6
2014-Sep-28 14:26N 24°28' E 120°27'  
2014-Sep-24 09:28N 34°35' E 134°52'1112.3
2014-Sep-24 08:34N 34°35' E 135°06'1312.5
2014-Sep-24 07:33N 34°37' E 135°21'4 2.9
2014-Sep-24 06:19N 34°38' E 135°25'0 0.0
2014-Sep-24 05:31N 34°38' E 135°25'0 0.0
2014-Sep-24 04:13N 34°38' E 135°25'0 0.0
2014-Sep-24 03:25N 34°38' E 135°25'0 0.0
2014-Sep-24 02:31N 34°38' E 135°25'0 0.0
2014-Sep-24 01:31N 34°38' E 135°25'0 0.0
2014-Sep-24 00:31N 34°38' E 135°25'0 0.0
2014-Sep-23 23:31N 34°38' E 135°25'0 0.0
2014-Sep-23 22:31N 34°38' E 135°25'0 0.0
2014-Sep-23 21:31N 34°38' E 135°25'0 0.0
2014-Sep-23 20:25N 34°38' E 135°25'0 0.0
2014-Sep-23 19:13N 34°38' E 135°25'0 0.0
2014-Sep-23 18:31N 34°38' E 135°25'0 0.0
2014-Sep-23 17:31N 34°38' E 135°25'0 0.0
2014-Sep-23 16:31N 34°38' E 135°25'0 0.0
2014-Sep-23 15:19N 34°38' E 135°25'0 0.0
2014-Sep-23 14:25N 34°38' E 135°25'0 0.0
2014-Sep-23 13:31N 34°38' E 135°25'0 0.0
2014-Sep-23 12:31N 34°38' E 135°25'0 0.0
2014-Sep-23 11:25N 34°38' E 135°25'0 0.0
2014-Sep-23 10:31N 34°38' E 135°25'0 0.0
2014-Sep-23 09:30N 34°38' E 135°25'0 0.0
2014-Sep-23 08:30N 34°38' E 135°25'0 0.0
2014-Sep-23 07:24N 34°38' E 135°25'0 0.0
2014-Sep-23 06:24N 34°38' E 135°25'0 0.0
2014-Sep-23 05:30N 34°38' E 135°25'0 0.0
2014-Sep-23 04:30N 34°38' E 135°25'0 0.0
2014-Sep-23 03:30N 34°38' E 135°25'0 0.0
2014-Sep-23 02:30N 34°38' E 135°25'0 0.0
2014-Sep-23 01:30N 34°38' E 135°25'0 0.0
2014-Sep-23 00:30N 34°38' E 135°25'0 0.0
2014-Sep-22 23:24N 34°38' E 135°25'0 0.0
2014-Sep-22 22:30N 34°38' E 135°25'0 0.0
2014-Sep-22 21:24N 34°38' E 135°25'0 0.0
2014-Sep-22 20:30N 34°38' E 135°25'0 0.0
2014-Sep-22 19:30N 34°38' E 135°25'0 0.0
2014-Sep-22 18:30N 34°38' E 135°25'0 0.0
2014-Sep-22 17:30N 34°38' E 135°25'0 0.0
2014-Sep-22 16:18N 34°38' E 135°25'0 0.0
2014-Sep-22 15:30N 34°38' E 135°25'0 0.0
2014-Sep-22 14:24N 34°38' E 135°25'0 0.0
2014-Sep-22 13:30N 34°38' E 135°25'0 0.0
2014-Sep-22 12:30N 34°38' E 135°25'0 0.0
2014-Sep-22 11:18N 34°38' E 135°25'0 0.0
2014-Sep-22 10:30N 34°38' E 135°25'0 0.0
2014-Sep-22 09:18N 34°38' E 135°25'0 0.0
2014-Sep-22 08:23N 34°38' E 135°25'0 0.0
2014-Sep-22 07:29N 34°38' E 135°25'0 0.0
2014-Sep-22 06:23N 34°38' E 135°25'0 0.0
2014-Sep-22 05:29N 34°38' E 135°25'0 0.0
2014-Sep-22 04:17N 34°38' E 135°25'0 0.0
2014-Sep-22 03:29N 34°38' E 135°25'0 0.0
2014-Sep-22 02:23N 34°38' E 135°25'0 0.0
2014-Sep-22 01:29N 34°38' E 135°25'0 0.0
2014-Sep-22 00:29N 34°38' E 135°25'0 0.0
2014-Sep-21 23:17N 34°38' E 135°25'0 0.0
2014-Sep-21 22:29N 34°38' E 135°25'2 1.9
2014-Sep-21 21:33N 34°38' E 135°23'1 1.1
2014-Sep-21 20:34N 34°37' E 135°22'0 0.0
2014-Sep-21 19:33N 34°37' E 135°22'0 0.0
2014-Sep-21 18:33N 34°37' E 135°22'0 0.0
2014-Sep-21 17:33N 34°37' E 135°22'0 0.0
2014-Sep-21 16:33N 34°37' E 135°22'0 0.0
2014-Sep-21 15:21N 34°37' E 135°22'0 0.0
2014-Sep-21 14:33N 34°37' E 135°22'0 0.0
2014-Sep-21 13:33N 34°37' E 135°22'0 0.1
2014-Sep-21 12:33N 34°37' E 135°22'0 0.0
2014-Sep-21 11:33N 34°37' E 135°22'0 0.0
2014-Sep-21 10:33N 34°37' E 135°22'0 0.0
2014-Sep-21 09:33N 34°37' E 135°22'0 0.0
2014-Sep-21 08:33N 34°37' E 135°22'0 0.0
2014-Sep-21 07:33N 34°37' E 135°22'0 0.0
2014-Sep-21 06:33N 34°37' E 135°22'0 0.1
2014-Sep-21 05:33N 34°37' E 135°22'0 0.0
2014-Sep-21 04:33N 34°37' E 135°22'0 0.0
2014-Sep-21 03:27N 34°37' E 135°22'0 0.0
2014-Sep-21 02:27N 34°37' E 135°22'0 0.0
2014-Sep-21 01:27N 34°37' E 135°22'0 0.0
2014-Sep-21 00:33N 34°37' E 135°22'0 0.0
2014-Sep-20 23:27N 34°37' E 135°22'0 0.0
2014-Sep-20 22:33N 34°37' E 135°22'0 0.0
2014-Sep-20 21:21N 34°37' E 135°22'0 0.0
2014-Sep-20 20:33N 34°37' E 135°22'0 0.0
2014-Sep-20 19:33N 34°37' E 135°22'0 0.0
2014-Sep-20 18:33N 34°37' E 135°22'0 0.0
2014-Sep-20 17:33N 34°37' E 135°22'0 0.0
2014-Sep-20 16:33N 34°37' E 135°22'0 0.0
2014-Sep-20 15:21N 34°37' E 135°22'3 4.3
2014-Sep-20 14:33N 34°36' E 135°18'1313.1
2014-Sep-20 13:33N 34°36' E 135°02'1312.7
2014-Sep-20 12:33N 34°33' E 134°47'  

Dump ship's entire track history